Accueil
METAR-TAF:

METAR-TAF

Aéroports :

Caracas, Venezuela

Aéroport international Maiquetía - Simón Bolívar

latitude: 10-36N, longitude: 066-59W, altitude: 43 m

Observation

Le bulletin a été fait il y a 33 minutes, à 12:00 UTC
Vent calme
Température 29°C
Humidité 55%
Pression 1013 hPa
Visibilité 10 km ou plus
Nuages épars à une hauteur de 1600 ft

METAR: SVMI 231200Z 00000KT 9999 SCT016 29/19 Q1013

Heure: 08:33 (12:33 UTC)

Prévision

Le bulletin a été fait il y a 2 heures et 33 minutes, à 10:00 UTC
Prévision valable du 23 à 12 UTC au 24 à 12 UTC
Vent 9 kt de est/nord-est
Visibilité 10 km ou plus
Nuages épars à une hauteur de 1600 ft
Evoluant progressivement
du 23 à 12 UTC au 23 à 16 UTC
Vent 10 kt de est

TAF: SVMI 231000Z 2312/2412 07009KT 9999 SCT016 TX33/19Z TN24/09Z BECMG 2312/2316 08010KT

Observations et prévisions météorologiques de plus de 4000 aéroports (messages METAR et TAF).

Les stations disponibles sont représentées par des disques jaunes et rouges sur la carte.

Passer la souris dessus pour voir le nom de la station.

Cliquer dessus pour voir les observations et prévisions météorologiques.

Pour changer de carte: cliquez sur les boutons verts avec une croix noire pour zoomer, sur le bouton vert avec un tiret pour effectuer un zoom arrière, ou sur les flèches vertes pour les cartes adjacentes.


METAR-TAF: